Melville Hall, Dominica

1:05 AM AST on January 27, 2015 (GMT -0400)
J73WA Weather Station | Change Station
CLOSE
Current Station
Personal Weather Station
Location: Portsmouth, Dominica
Elevation: 20 ft
Nearby Weather Stations

Elev 20 ft 15.58 °N, 61.46 °W | Updated 6 seconds ago

Partly Cloudy
Partly Cloudy
77.7 °F
Feels Like 80 °F
N
9.0
Wind Variable Wind from ENE
Gusts 17.0 mph

Today
High -- | Low -- °F
--% Chance of Precip.
Yesterday
High -- | Low -- °F
Precip. -- in
6:35 AM 6:00 PM
Waxing Crescent, 50% visible
Pressure 30.01 in
Visibility 6.2 miles
Clouds Few 2900 ft
Heat Index 80 °F
Dew Point 75 °F
Humidity 92%
Rainfall 0.00 in
Snow Depth Not available.
UV 0 out of 12
Pollen Not available.
Air Quality Not available.
Flu Activity Not available.
METAR TFFR 270500Z AUTO 11006KT 9999 FEW029 25/20 Q1016

More Conditions Fewer Conditions

Pressure 30.01 in
Visibility 6.2 miles
Clouds Few 2900 ft
Heat Index 80 °F
Dew Point 75 °F
Humidity 92%
Rainfall 0.00 in
Snow Depth Not available.
UV 0 out of 12
Pollen Not available.
Air Quality Not available.
Flu Activity Not available.
METAR TFFR 270500Z AUTO 11006KT 9999 FEW029 25/20 Q1016

More Conditions Fewer Conditions

10-Day Weather Forecast

Almanac

Astronomy

Jan. 27, 2015 Rise Set
Actual Time
Civil Twilight
Nautical Twilight
Astronomical Twilight
Moon
Length of Visible Light
Length of Day
Tomorrow will be .
, % of the Moon is Illuminated

Today's Extremes

Country Highs Country Lows

Community

WunderPhotos

Upload Photos

1,790,531 photos uploaded!

WunderBlogs® & News

Nearby

Air Quality

  Air Quality AQ Index Pollutant
Not available.

Snow Depth

Station Depth Elevation

Earthquake Activity

City Distance Mag. Time & Date
Minimum magnitude displayed is 2.5.

Coastal Water Temperatures

Place Temperature

Nearby Weather Stations